Date,TemperatureHighF,TemperatureAvgF,TemperatureLowF,DewpointHighF,DewpointAvgF,DewpointLowF,HumidityHigh,HumidityAvg,HumidityLow,PressureMaxIn,PressureMinIn,WindSpeedMaxMPH,WindSpeedAvgMPH,GustSpeedMaxMPH,PrecipitationSumIn
2013-1-1,49.0,46.7,43.9,34.8,25.2,1.9,69,46,15,30.10,29.93,0,0,0,0.21
2013-1-2,48.6,44.6,40.0,37.0,18.0,-8.6,68,42,8,30.17,29.94,0,0,0,0.20
2013-1-3,43.7,39.1,29.2,31.8,20.2,9.4,67,48,31,30.25,30.14,0,0,0,0.00
2013-1-4,48.4,37.3,27.4,27.0,20.2,5.1,70,51,38,30.30,30.17,0,0,0,0.00
2013-1-5,49.3,37.3,28.4,30.6,25.0,20.0,70,62,44,30.38,30.23,0,0,0,0.00
2013-1-6,51.7,43.9,38.5,39.0,33.3,27.6,70,66,61,30.23,30.05,0,0,0,0.01
2013-1-7,49.7,39.7,31.1,34.1,27.9,18.1,71,63,53,30.42,30.18,0,0,0,0.00
2013-1-8,54.0,41.3,28.8,41.5,30.4,17.5,70,65,50,30.46,30.35,0,0,0,0.00
2013-1-9,64.6,49.7,35.3,53.0,35.4,9.9,69,59,29,30.44,30.34,0,0,0,0.00
2013-1-10,62.8,54.5,48.6,46.4,37.6,17.8,69,55,27,30.52,30.42,0,0,0,0.00
2013-1-11,49.9,46.2,41.8,38.5,19.4,-7.4,71,41,5,30.42,30.15,0,0,0,0.20
2013-1-12,68.2,56.9,46.4,42.3,7.0,-7.2,39,10,1,30.17,30.10,0,0,0,0.00
2013-1-13,62.8,56.5,52.2,30.8,6.4,-2.8,30,10,2,30.11,30.07,0,0,0,0.00
2013-1-14,63.0,61.4,57.2,5.7,4.4,1.1,1,1,1,30.15,30.12,0,0,0,0.01
2013-1-15,55.4,45.6,43.4,-0.2,-7.7,-9.6,12,6,2,30.23,30.08,0,0,0,0.13
2013-1-16,49.5,46.0,41.0,-4.8,-7.5,-11.3,7,2,1,30.07,29.97,0,0,0,0.17
2013-1-17,50.2,45.4,33.5,3.9,-7.3,-17.4,24,3,1,30.15,29.89,0,0,0,1.46
2013-1-18,41.8,34.6,28.8,30.3,7.8,-17.8,67,38,3,30.51,30.14,0,0,0,0.29
2013-1-19,49.9,34.7,24.5,33.5,16.3,-7.9,67,48,18,30.48,30.14,0,0,0,0.16
2013-1-20,59.4,46.3,36.7,38.0,31.1,25.3,66,56,41,30.14,29.99,0,0,0,0.00
2013-1-21,57.1,43.1,29.5,34.5,24.5,9.7,67,49,34,30.09,29.86,0,0,0,0.00
2013-1-22,40.7,32.3,23.9,19.4,7.1,-0.4,47,35,22,30.27,29.96,0,0,0,0.00
2013-1-23,40.9,27.9,17.8,17.6,10.7,4.4,65,49,37,30.35,30.03,0,0,0,0.00
2013-1-24,36.5,30.6,24.7,23.6,12.4,3.5,67,48,31,30.49,29.95,0,0,0,0.00
2013-1-25,27.2,24.6,19.8,16.7,10.7,4.2,70,55,42,30.49,30.09,0,0,0,0.01
2013-1-26,37.8,30.8,26.5,24.8,11.4,-6.6,59,45,23,30.39,30.06,0,0,0,0.02
2013-1-27,40.0,31.9,23.0,28.7,18.3,3.5,67,57,38,30.57,30.37,0,0,0,0.02
2013-1-28,49.9,42.1,32.6,38.8,25.8,-1.5,66,54,13,30.48,30.22,0,0,0,0.03
2013-1-29,70.4,57.3,47.7,56.9,24.4,-6.2,66,34,1,30.23,30.05,0,0,0,0.00
2013-1-30,71.3,65.3,57.2,52.8,19.7,1.4,54,18,1,30.06,29.39,0,0,0,0.38
2013-1-31,60.1,44.9,33.7,36.1,24.8,2.3,65,47,12,30.00,29.47,0,0,0,0.07
2013-2-1,40.3,33.3,24.7,28.3,13.8,4.6,67,46,28,30.36,29.86,0,0,0,0.00
2013-2-2,43.0,32.5,20.0,31.6,15.3,7.6,67,50,33,30.37,30.02,0,0,0,0.00
2013-2-3,47.9,39.6,33.7,30.4,24.8,8.4,66,56,36,30.02,29.84,0,0,0,0.00
2013-2-4,48.4,37.6,26.8,27.1,23.0,17.8,69,56,39,30.14,29.98,0,0,0,0.00
2013-2-5,57.6,45.0,36.9,37.2,31.6,25.5,69,60,43,30.00,29.88,0,0,0,0.00
2013-2-6,58.3,44.8,31.7,35.9,26.8,12.4,69,51,29,30.26,29.97,0,0,0,0.00
2013-2-7,45.4,41.3,36.9,34.5,22.9,-10.8,68,53,9,30.32,30.00,0,0,0,0.62
2013-2-8,54.4,44.2,36.9,42.4,12.4,-14.7,64,34,7,30.05,29.81,0,0,0,0.41
2013-2-9,50.4,38.5,29.2,28.2,21.8,18.5,70,53,30,30.34,30.05,0,0,0,0.00
2013-2-10,51.7,39.5,26.8,33.8,24.4,17.8,69,56,38,30.47,30.19,0,0,0,0.07
2013-2-11,61.0,53.4,43.6,33.8,9.8,-4.2,68,17,1,30.20,29.91,0,0,0,0.08
2013-2-12,58.3,51.4,44.1,36.7,24.4,-27.7,66,39,1,30.09,29.94,0,0,0,0.00
2013-2-13,49.0,45.4,40.3,36.5,11.8,-7.7,65,28,1,29.95,29.63,0,0,0,0.30
2013-2-14,50.2,40.2,30.6,34.4,21.9,-9.5,67,49,16,30.07,29.83,0,0,0,0.00
2013-2-15,59.8,44.6,31.3,40.0,21.7,-15.5,64,42,7,30.08,29.92,0,0,0,0.00
2013-2-16,43.9,35.8,28.4,32.9,9.6,-17.3,67,38,11,29.98,29.84,0,0,0,0.22
2013-2-17,35.6,28.4,22.7,15.2,11.8,7.4,68,50,36,30.25,29.92,0,0,0,0.01
2013-2-18,50.4,33.9,17.8,27.6,19.4,9.0,68,56,39,30.38,30.24,0,0,0,0.10
2013-2-19,48.2,39.5,30.2,25.6,7.9,-13.2,66,34,1,30.22,29.86,0,0,0,0.21
2013-2-20,51.5,38.6,27.5,25.3,17.7,-5.2,66,45,16,30.13,29.97,0,0,0,0.00
2013-2-21,51.8,39.9,25.9,23.6,19.2,14.7,63,44,29,30.24,30.11,0,0,0,0.00
2013-2-22,43.0,36.6,34.2,24.5,18.3,2.0,61,48,24,30.31,30.14,0,0,0,0.29
2013-2-23,42.1,40.2,36.4,-9.3,-11.9,-15.1,14,5,1,29.99,29.82,0,0,0,0.21
2013-2-24,60.1,47.6,38.9,41.0,14.4,-13.0,60,29,1,30.02,29.80,0,0,0,0.01
2013-2-25,42.7,38.0,34.0,26.2,24.4,22.3,65,58,49,30.21,30.03,0,0,0,0.00
2013-2-26,52.2,41.9,33.5,26.0,4.4,-13.3,66,24,1,30.13,29.56,0,0,0,0.65
2013-2-27,57.4,47.2,40.1,40.2,17.2,-12.1,64,34,1,29.78,29.63,0,0,0,0.00
2013-2-28,48.2,42.2,35.6,31.7,23.9,0.7,66,49,21,29.86,29.70,0,0,0,0.00
2013-3-1,45.0,38.6,29.7,30.0,24.6,12.8,66,57,46,29.91,29.83,0,0,0,0.00
2013-3-2,46.6,36.8,28.4,27.9,22.6,16.4,66,57,46,29.92,29.81,0,0,0,0.00
2013-3-3,44.3,35.2,29.7,23.3,19.5,17.4,63,53,41,29.96,29.85,0,0,0,0.00
2013-3-4,50.4,36.1,25.4,22.5,17.1,14.1,64,48,28,30.10,29.96,0,0,0,0.00
2013-3-5,44.6,41.0,34.9,32.2,18.9,-9.1,66,46,1,30.06,29.57,0,0,0,0.29
2013-3-6,46.4,40.8,35.6,30.4,15.5,-15.5,66,42,1,30.03,29.53,0,0,0,0.02
2013-3-7,49.5,41.0,32.8,32.1,27.2,20.0,64,58,48,30.23,30.03,0,0,0,0.00
2013-3-8,55.6,42.3,30.6,27.5,24.8,20.2,68,52,32,30.28,30.14,0,0,0,0.00
2013-3-9,62.6,45.8,30.8,34.5,28.2,19.6,67,52,34,30.33,30.23,0,0,0,0.00
2013-3-10,48.6,38.7,33.5,27.0,25.5,23.6,67,60,43,30.29,30.22,0,0,0,0.00
2013-3-11,67.0,53.9,40.3,51.4,39.6,25.3,67,58,46,30.23,29.93,0,0,0,0.00
2013-3-12,67.0,58.8,49.0,53.1,23.7,0.5,61,29,1,29.96,29.75,0,0,0,0.71
2013-3-13,54.2,45.2,33.3,31.5,26.9,20.4,67,50,32,30.11,29.95,0,0,0,0.00
2013-3-14,52.2,40.1,29.9,23.1,19.2,16.4,59,44,28,30.22,30.10,0,0,0,0.00
2013-3-15,61.9,45.7,28.3,36.3,27.1,17.5,67,49,37,30.17,29.90,0,0,0,0.00
2013-3-16,76.7,59.2,43.2,51.7,42.3,31.8,67,55,38,29.89,29.67,0,0,0,0.00
2013-3-17,60.8,50.9,41.8,49.1,35.1,13.9,67,56,21,30.16,29.84,0,0,0,0.00
2013-3-18,41.8,40.0,38.5,23.4,10.0,-13.0,50,31,5,30.17,29.84,0,0,0,0.27
2013-3-19,65.2,49.5,37.4,38.1,8.6,-14.2,57,18,1,30.03,29.82,0,0,0,0.00
2013-3-20,55.8,46.5,37.4,22.7,16.5,10.5,55,31,22,30.10,29.81,0,0,0,0.00
2013-3-21,42.7,38.2,30.6,28.3,18.4,11.3,63,45,32,29.96,29.74,0,0,0,0.00
2013-3-22,51.5,36.6,22.1,21.1,15.3,10.7,62,43,25,30.06,29.95,0,0,0,0.00
2013-3-23,45.0,38.4,34.2,26.6,24.4,19.4,65,57,43,30.04,29.97,0,0,0,0.00
2013-3-24,41.2,38.2,35.8,29.3,8.8,-14.4,66,35,7,29.93,29.56,0,0,0,0.06
2013-3-25,46.8,40.0,34.6,32.4,12.0,-16.6,62,35,5,29.81,29.56,0,0,0,0.02
2013-3-26,47.0,40.7,31.7,29.8,26.0,20.5,67,56,46,30.10,29.81,0,0,0,0.00
2013-3-27,50.2,40.1,30.1,26.5,22.8,17.0,67,51,35,30.22,30.10,0,0,0,0.00
2013-3-28,55.6,42.1,28.4,27.5,23.6,18.5,66,50,31,30.27,30.14,0,0,0,0.00
2013-3-29,60.8,44.1,28.3,30.5,25.0,16.2,66,49,28,30.31,30.17,0,0,0,0.00
2013-3-30,66.6,52.9,38.3,42.4,33.6,27.5,65,49,32,30.23,30.07,0,0,0,0.00
2013-3-31,66.8,55.7,48.6,53.7,33.8,-2.1,66,47,6,30.09,29.81,0,0,0,0.67
2013-4-1,70.9,59.2,50.2,48.8,24.3,-4.3,62,30,1,29.98,29.83,0,0,0,0.09
2013-4-2,61.9,48.5,33.7,35.6,28.0,21.6,67,47,27,30.15,29.99,0,0,0,0.00
2013-4-3,58.5,48.1,36.2,26.9,22.9,18.7,54,38,24,30.29,30.13,0,0,0,0.00
2013-4-4,48.6,42.4,38.0,33.3,18.7,-13.8,63,41,10,30.34,29.95,0,0,0,0.77
2013-4-5,70.4,48.8,35.6,48.2,14.7,-15.7,63,28,1,30.02,29.88,0,0,0,0.03
2013-4-6,68.2,52.3,41.2,37.8,32.2,27.9,65,48,30,30.26,30.02,0,0,0,0.00
2013-4-7,72.2,56.6,38.2,45.9,39.1,26.7,67,53,38,30.27,30.11,0,0,0,0.00
2013-4-8,80.8,64.3,51.8,57.0,46.2,27.9,66,53,31,30.17,30.06,0,0,0,0.00
2013-4-9,86.0,70.0,55.3,59.7,51.2,33.4,66,52,39,30.19,30.08,0,0,0,0.00
2013-4-10,88.4,72.9,58.7,63.2,55.8,44.5,67,56,40,30.12,29.97,0,0,0,0.00
2013-4-11,71.8,71.4,70.6,60.3,58.8,57.3,67,65,61,29.82,29.81,0,0,0,0.00
2013-4-12,84.2,72.1,64.4,64.3,44.2,7.2,62,41,1,29.82,29.63,0,0,0,0.54
2013-4-13,78.8,62.2,48.4,47.2,42.0,37.5,66,49,31,30.03,29.80,0,0,0,0.00
2013-4-14,80.5,62.9,43.0,50.0,42.6,30.4,67,50,28,30.11,30.02,0,0,0,0.00
2013-4-15,71.5,63.6,57.2,57.8,48.0,33.3,66,57,39,30.22,30.02,0,0,0,0.09
2013-4-16,79.6,67.4,60.8,62.5,50.1,34.4,66,55,37,30.31,30.21,0,0,0,0.00
2013-4-17,80.6,67.6,56.9,65.0,48.9,16.7,66,52,17,30.24,30.12,0,0,0,0.00
2013-4-18,79.9,69.7,61.0,62.8,50.2,26.6,66,51,22,30.21,30.06,0,0,0,0.00
2013-4-19,78.5,69.7,63.4,62.8,31.4,6.0,59,27,1,30.06,29.73,0,0,0,0.49
2013-4-20,65.9,54.8,45.0,41.1,35.1,6.0,64,49,1,30.27,29.85,0,0,0,0.00
2013-4-21,63.0,51.5,41.0,41.8,35.4,19.1,64,54,41,30.48,30.27,0,0,0,0.05
2013-4-22,62.8,50.7,38.0,42.0,35.1,22.3,66,56,41,30.47,30.26,0,0,0,0.00
2013-4-23,70.4,55.5,47.2,52.9,35.8,16.5,63,48,29,30.29,30.12,0,0,0,0.02
2013-4-24,74.9,61.7,48.6,59.1,40.1,-2.5,65,47,3,30.15,29.99,0,0,0,0.00
2013-4-25,71.1,59.9,47.9,48.1,42.9,35.1,67,54,39,30.28,30.03,0,0,0,0.00
2013-4-26,72.5,57.1,42.3,46.7,38.4,28.0,65,51,33,30.43,30.28,0,0,0,0.00
2013-4-27,72.4,61.3,51.8,52.8,46.6,40.0,67,59,44,30.37,30.27,0,0,0,0.00
2013-4-28,59.4,56.5,54.7,46.0,31.0,-0.7,62,42,2,30.27,30.10,0,0,0,0.72
2013-4-29,70.6,61.2,54.7,44.1,9.5,-0.7,40,8,1,30.09,29.98,0,0,0,0.28
2013-4-30,66.4,59.1,52.6,38.5,8.4,-2.5,36,8,1,30.20,30.02,0,0,0,0.00
2013-5-1,60.8,56.5,52.6,4.0,0.6,-2.5,1,1,1,30.33,30.18,0,0,0,0.03
2013-5-2,61.9,56.2,51.5,4.9,0.4,-3.3,7,1,1,30.34,30.27,0,0,0,0.00
2013-5-5,57.2,53.6,49.7,18.3,1.4,-4.8,24,7,1,30.11,29.99,0,0,0,0.02
2013-5-6,63.7,55.2,50.9,6.1,-0.4,-3.8,1,1,1,30.01,29.85,0,0,0,1.43
2013-5-7,70.7,57.5,47.7,54.7,12.1,-6.2,59,15,1,29.96,29.87,0,0,0,0.02
2013-5-8,69.3,59.6,52.2,36.9,6.6,-2.8,34,6,1,30.02,29.94,0,0,0,0.47
2013-5-9,79.2,64.2,50.4,62.1,23.6,-4.2,56,23,1,30.08,29.99,0,0,0,0.00
2013-5-10,85.0,70.6,57.6,64.5,32.1,1.4,56,26,1,30.09,29.98,0,0,0,0.00
2013-5-11,80.3,71.2,65.7,62.1,21.3,7.7,55,15,1,29.98,29.82,0,0,0,0.00
2013-5-12,72.4,63.5,52.9,52.2,28.1,1.4,58,29,1,30.04,29.83,0,0,0,0.00
2013-5-13,66.6,55.4,42.1,41.8,30.1,-10.3,60,40,2,30.18,30.03,0,0,0,0.00
2013-5-16,85.3,73.3,61.9,66.0,41.3,4.9,56,35,1,30.01,29.92,0,0,0,0.00
2013-5-17,87.3,73.7,60.8,67.2,35.0,3.8,56,27,1,30.11,30.01,0,0,0,0.00
2013-5-18,75.6,69.2,61.2,15.2,10.4,4.2,8,1,1,30.19,30.09,0,0,0,0.00
2013-5-19,79.9,66.1,60.3,31.2,8.1,3.5,18,1,1,30.17,30.08,0,0,0,0.76
2013-5-20,78.5,65.8,62.3,17.3,7.8,5.1,8,1,1,30.14,30.05,0,0,0,0.15
2013-5-21,84.1,71.1,62.5,40.6,12.1,5.2,23,1,1,30.08,29.97,0,0,0,0.00
2013-5-22,84.6,72.7,64.3,61.5,20.3,6.6,49,9,1,30.06,29.94,0,0,0,0.02
2013-5-23,81.0,69.8,61.2,36.4,11.3,4.2,21,2,1,30.00,29.85,0,0,0,1.32
2013-5-24,68.0,61.3,51.8,51.7,26.0,-0.1,59,29,1,30.21,29.86,0,0,0,0.00
2013-5-25,73.8,57.7,43.6,51.9,27.5,-9.5,58,34,1,30.28,30.14,0,0,0,0.00
2013-5-26,74.7,60.8,48.1,53.4,30.1,-5.8,57,35,6,30.28,30.18,0,0,0,0.00
2013-5-27,80.1,65.8,51.3,60.3,31.3,-3.5,56,31,1,30.28,30.16,0,0,0,0.00
2013-5-28,85.0,71.3,60.3,66.4,29.7,3.5,54,23,1,30.26,30.17,0,0,0,0.00
2013-5-29,85.9,73.5,60.5,67.2,33.3,3.4,55,25,1,30.27,30.18,0,0,0,0.00
2013-5-30,86.8,73.1,61.0,68.0,27.0,4.0,54,18,1,30.30,30.21,0,0,0,0.00
2013-5-31,87.1,74.7,62.8,68.0,32.3,5.2,54,22,1,30.25,30.14,0,0,0,0.00
2013-6-1,83.5,77.1,71.6,65.1,43.3,12.2,54,33,1,30.09,30.06,0,0,0,0.00
2013-6-2,85.7,74.9,64.3,66.0,27.3,6.6,53,16,1,30.08,29.94,0,0,0,0.00
2013-6-3,66.6,63.2,60.5,8.4,5.8,3.5,1,1,1,29.98,29.90,0,0,0,0.54
2013-6-4,76.0,65.4,59.4,15.5,7.5,2.8,3,1,1,30.12,29.97,0,0,0,0.00
2013-6-5,80.3,68.5,58.1,61.4,18.2,1.8,54,11,1,30.16,30.05,0,0,0,0.00
2013-6-6,69.8,67.4,64.3,12.3,9.0,6.6,11,2,1,30.06,29.85,0,0,0,0.47
2013-6-7,69.5,65.8,63.5,10.5,7.8,6.0,1,1,1,29.88,29.59,0,0,0,1.56
2013-6-8,84.4,70.6,61.0,50.4,14.0,4.0,33,4,1,30.13,29.85,0,0,0,0.03
2013-6-9,88.6,74.0,61.6,62.2,16.4,4.5,43,4,1,30.19,30.09,0,0,0,0.01
2013-6-10,82.3,69.9,66.8,20.3,11.0,8.6,1,1,1,30.13,29.91,0,0,0,0.78
2013-6-11,85.5,73.6,64.4,64.5,25.3,6.7,50,14,1,29.99,29.93,0,0,0,0.00
2013-6-12,90.4,75.5,59.8,58.4,20.0,3.1,36,7,1,30.01,29.91,0,0,0,0.00
2013-6-13,94.0,77.4,63.9,72.5,26.7,6.3,51,12,1,29.91,29.65,0,0,0,0.14
2013-6-14,80.5,71.7,55.4,61.0,36.4,-0.2,53,30,1,30.04,29.78,0,0,0,0.00
2013-6-15,85.7,70.9,58.0,66.6,27.3,1.5,53,20,1,30.15,30.04,0,0,0,0.00
2013-6-16,87.8,75.3,65.5,63.8,24.7,7.4,46,12,1,30.15,30.04,0,0,0,0.00
2013-6-17,86.0,76.7,70.6,41.1,16.4,11.3,21,2,1,30.07,29.96,0,0,0,0.00
2013-6-18,82.8,69.9,64.6,20.6,10.9,6.9,1,1,1,30.01,29.81,0,0,0,0.58
2013-6-19,81.4,69.8,59.8,23.6,10.9,3.1,13,1,1,30.15,29.92,0,0,0,0.00
2013-6-20,82.3,71.2,61.0,61.7,25.1,4.0,51,16,1,30.27,30.15,0,0,0,0.00
2013-6-21,83.5,70.8,56.3,63.6,31.7,0.5,53,25,1,30.30,30.22,0,0,0,0.00
2013-6-22,82.8,69.9,63.7,30.5,10.9,6.1,16,1,1,30.25,30.15,0,0,0,0.03
2013-6-23,87.1,73.1,61.2,42.4,13.6,4.2,21,2,1,30.25,30.15,0,0,0,0.00
2013-6-24,86.9,74.2,65.9,26.9,14.2,7.8,12,1,1,30.25,30.12,0,0,0,0.19
2013-6-25,90.4,74.6,63.9,46.8,15.4,6.3,24,3,1,30.16,30.04,0,0,0,0.00
2013-6-26,90.9,74.0,64.8,58.9,17.6,6.9,44,5,1,30.07,29.93,0,0,0,0.24
2013-6-27,88.0,75.5,63.5,38.0,15.1,-9.5,18,2,1,29.97,29.76,0,0,0,0.00
2013-6-28,90.5,76.2,66.6,61.5,20.3,8.4,39,6,1,29.79,29.61,0,0,0,0.48
2013-6-29,83.9,72.9,65.2,21.4,13.2,7.2,1,1,1,29.76,29.63,0,0,0,0.15
2013-6-30,85.9,71.1,65.5,23.0,11.8,7.6,3,1,1,29.89,29.75,0,0,0,0.83
2013-7-1,81.9,72.0,66.1,20.1,12.5,7.9,1,1,1,30.03,29.88,0,0,0,0.39
2013-7-2,72.9,70.5,68.0,13.2,11.4,9.5,1,1,1,30.21,30.02,0,0,0,0.34
2013-7-3,84.6,74.0,70.2,22.1,14.1,11.1,1,1,1,30.27,30.18,0,0,0,0.32
2013-7-4,83.7,74.5,70.6,21.2,14.4,11.3,1,1,1,30.30,30.21,0,0,0,0.43
2013-7-5,88.6,77.4,69.5,26.6,16.6,10.5,11,1,1,30.31,30.19,0,0,0,0.00
2013-7-8,74.0,73.5,73.1,14.0,13.7,13.4,1,1,1,30.19,30.18,0,0,0,0.00
2013-7-9,82.3,75.2,68.6,20.3,15.0,9.9,1,1,1,30.20,30.09,0,0,0,0.00
2013-7-10,87.5,76.3,68.8,24.4,15.8,10.1,5,1,1,30.14,29.98,0,0,0,0.61
2013-7-11,76.0,72.9,70.7,15.5,13.2,11.3,1,1,1,30.01,29.91,0,0,0,0.45
2013-7-12,72.7,69.7,66.8,13.2,10.8,8.6,1,1,1,30.07,29.91,0,0,0,0.08
2013-7-13,75.2,70.9,67.1,14.9,11.7,8.8,1,1,1,30.21,30.05,0,0,0,0.14
2013-7-14,86.9,76.4,68.6,49.7,17.0,9.9,28,3,1,30.33,30.20,0,0,0,0.54
2013-7-15,88.7,75.9,66.6,59.8,18.8,-4.3,40,5,1,30.36,30.28,0,0,0,0.01
2013-7-16,91.4,78.1,65.9,54.5,18.6,7.7,29,4,1,30.32,30.22,0,0,0,0.00
2013-7-17,91.3,80.0,70.2,62.3,21.8,4.3,40,5,1,30.26,30.14,0,0,0,0.00
2013-7-18,94.0,80.1,69.1,66.0,23.0,10.3,41,6,1,30.18,30.08,0,0,0,0.00
2013-7-19,90.0,79.4,69.5,55.3,20.4,10.5,31,4,1,30.14,30.02,0,0,0,0.00
2013-7-20,88.2,78.2,70.0,35.0,17.4,11.0,16,2,1,30.06,29.96,0,0,0,0.00
2013-7-21,88.9,76.1,69.5,49.0,16.5,10.5,26,2,1,30.03,29.94,0,0,0,0.02
2013-7-22,87.7,75.6,67.9,43.8,16.3,9.4,23,3,1,29.99,29.87,0,0,0,0.00
2013-7-23,88.7,77.9,68.6,60.3,21.7,-10.5,40,7,1,29.88,29.77,0,0,0,0.00
2013-7-24,90.9,77.9,65.2,69.0,26.3,7.2,49,12,1,29.89,29.78,0,0,0,0.00
2013-7-25,80.1,71.7,62.8,21.0,12.3,5.5,12,2,1,30.07,29.86,0,0,0,0.02
2013-7-26,84.6,71.9,59.4,60.8,21.2,2.8,45,11,1,30.14,30.04,0,0,0,0.00
2013-7-27,82.8,69.7,63.7,30.5,10.8,6.1,16,1,1,30.08,29.96,0,0,0,0.68
2013-7-28,85.9,74.2,65.2,46.2,16.2,7.2,26,4,1,30.05,29.95,0,0,0,0.41
2013-7-29,83.7,72.6,63.7,63.0,25.2,6.1,50,15,1,30.20,30.02,0,0,0,0.00
2013-7-30,84.6,71.5,57.6,61.1,21.4,1.4,48,12,1,30.25,30.17,0,0,0,0.00
2013-7-31,82.3,73.3,65.2,20.3,13.5,7.2,1,1,1,30.18,30.03,0,0,0,0.36
2013-8-1,83.2,73.1,67.1,21.1,13.3,8.8,1,1,1,30.04,29.91,0,0,0,0.11
2013-8-2,85.9,74.3,64.1,62.6,20.5,-8.9,47,8,1,30.07,29.95,0,0,0,0.51
2013-8-3,88.7,74.7,65.9,43.9,15.4,7.8,22,2,1,30.06,29.96,0,0,0,0.12
2013-8-4,82.8,73.9,66.4,62.6,24.0,8.1,52,13,1,30.07,29.94,0,0,0,0.00
2013-8-5,81.4,71.2,60.3,56.9,16.6,3.5,45,7,1,30.13,30.04,0,0,0,0.00
2013-8-6,79.6,70.9,61.9,28.0,11.9,4.9,17,2,1,30.10,30.03,0,0,0,0.58
2013-8-7,83.0,73.6,64.6,51.8,17.1,4.5,35,5,1,30.14,30.07,0,0,0,0.00
2013-8-8,84.1,74.7,66.6,21.7,14.6,8.4,6,1,1,30.11,30.04,0,0,0,0.02
2013-8-9,90.4,76.5,68.8,51.2,17.3,10.1,27,3,1,30.09,30.03,0,0,0,0.03
2013-8-10,91.8,75.8,70.0,60.8,17.1,-4.0,36,3,1,30.13,30.06,0,0,0,0.24
2013-8-11,89.8,76.1,69.5,49.9,16.6,10.5,26,3,1,30.15,30.06,0,0,0,0.23
2013-8-12,89.1,77.9,69.8,63.4,20.8,10.8,44,6,1,30.09,29.98,0,0,0,0.61
2013-8-13,87.3,75.0,70.2,24.2,14.8,11.1,1,1,1,30.02,29.83,0,0,0,0.14
2013-8-14,75.2,69.5,60.1,14.9,10.6,3.2,6,1,1,30.12,29.87,0,0,0,0.00
2013-8-15,75.1,63.2,54.4,54.3,13.9,-1.1,49,11,1,30.20,30.11,0,0,0,0.00
2013-8-16,70.2,61.3,55.3,11.1,4.3,-0.4,1,1,1,30.21,30.12,0,0,0,0.00
2013-8-17,69.5,63.7,57.2,10.5,6.1,1.1,1,1,1,30.21,30.15,0,0,0,0.27
2013-8-18,75.2,69.2,65.5,14.6,10.4,7.6,1,1,1,30.24,30.13,0,0,0,0.08
2013-8-19,74.2,69.2,65.5,14.2,10.4,7.6,1,1,1,30.22,30.13,0,0,0,0.35
2013-8-20,76.9,71.6,64.8,16.2,12.2,6.9,1,1,1,30.22,30.14,0,0,0,0.00
2013-8-21,82.1,74.3,71.1,20.3,14.3,11.8,1,1,1,30.26,30.13,0,0,0,0.65
2013-8-22,87.1,75.8,71.1,24.1,15.4,11.8,3,1,1,30.18,30.03,0,0,0,0.00
2013-8-23,83.2,73.8,67.3,20.8,13.9,9.0,1,1,1,30.13,29.98,0,0,0,0.15
2013-8-24,80.6,69.7,63.0,59.2,17.1,0.3,49,9,1,30.33,30.12,0,0,0,0.00
2013-8-25,77.2,66.8,59.0,42.0,10.4,2.5,29,4,1,30.42,30.32,0,0,0,0.00
2013-8-26,81.2,66.4,54.5,61.1,17.8,-16.9,51,12,1,30.35,30.15,0,0,0,0.00
2013-8-27,86.8,72.5,61.6,49.9,13.4,-11.3,29,2,1,30.16,30.00,0,0,0,0.00
2013-8-28,80.1,75.7,69.5,18.6,15.3,10.5,1,1,1,30.04,29.91,0,0,0,0.00
2013-8-29,83.7,76.4,72.0,21.4,15.9,12.5,1,1,1,30.06,29.89,0,0,0,0.00
2013-8-30,72.0,70.1,68.0,12.5,11.0,9.5,1,1,1,30.07,29.99,0,0,0,0.00
2013-8-31,85.9,74.5,67.1,23.0,14.4,8.8,3,1,1,30.01,29.90,0,0,0,0.00
2013-9-1,79.6,72.8,70.6,18.1,13.2,11.3,1,1,1,29.94,29.86,0,0,0,0.65
2013-9-2,82.4,75.4,69.7,20.0,15.1,10.7,1,1,1,29.94,29.84,0,0,0,0.03
2013-9-3,86.2,76.3,70.7,26.8,15.8,11.5,12,1,1,29.99,29.84,0,0,0,0.00
2013-9-4,83.5,71.9,64.1,35.5,12.5,6.4,18,1,1,30.13,29.99,0,0,0,0.00
2013-9-5,85.0,71.9,64.8,64.9,24.0,-2.6,51,15,1,30.14,30.07,0,0,0,0.00
2013-9-6,79.6,68.3,58.0,59.7,20.4,1.6,51,14,1,30.22,30.12,0,0,0,0.00
2013-9-7,80.3,67.6,58.1,52.6,13.9,1.8,39,7,1,30.17,30.01,0,0,0,0.00
2013-9-8,84.6,72.0,62.8,64.1,23.2,5.5,51,14,1,30.03,29.96,0,0,0,0.00
2013-9-9,85.7,73.2,65.0,50.9,15.5,7.1,31,4,1,30.18,30.03,0,0,0,0.00
2013-9-10,88.9,75.5,67.5,65.3,21.0,9.1,47,8,1,30.27,30.17,0,0,0,0.00
2013-9-11,88.4,74.9,66.6,64.7,21.5,8.4,47,9,1,30.24,30.11,0,0,0,0.00
2013-9-12,89.1,74.7,67.9,58.1,16.9,9.4,36,4,1,30.11,29.85,0,0,0,0.00
2013-9-13,81.7,72.5,60.7,61.5,30.7,3.8,54,23,1,29.94,29.80,0,0,0,0.00
2013-9-14,73.8,62.5,52.2,55.4,23.9,-2.8,54,25,1,30.16,29.94,0,0,0,0.00
2013-9-15,78.5,62.6,48.8,57.7,15.3,-5.4,50,13,1,30.25,30.14,0,0,0,0.00
2013-9-16,83.5,71.6,60.5,63.4,24.8,3.7,52,16,1,30.22,30.08,0,0,0,0.00
2013-9-17,74.5,64.7,54.7,56.1,23.6,-0.7,54,22,1,30.35,30.22,0,0,0,0.00
2013-9-18,71.8,57.9,46.6,53.4,13.6,-7.0,53,16,1,30.32,30.19,0,0,0,0.00
2013-9-19,75.4,61.6,49.0,52.6,10.4,-5.2,45,8,1,30.21,30.10,0,0,0,0.00
2013-9-20,70.4,66.3,61.9,11.3,8.2,4.9,1,1,1,30.11,29.99,0,0,0,0.06
2013-9-21,76.3,70.1,65.2,15.9,11.1,7.2,1,1,1,29.99,29.76,0,0,0,0.46
2013-9-22,73.4,65.4,58.5,51.8,12.0,-11.9,47,6,1,29.93,29.75,0,0,0,0.27
2013-9-23,71.3,60.2,52.2,51.8,14.7,-4.1,52,15,1,30.09,29.93,0,0,0,0.00
2013-9-24,73.8,61.7,52.2,50.3,10.5,-22.9,45,8,1,30.11,29.96,0,0,0,0.00
2013-9-25,63.4,63.0,62.6,5.8,5.7,5.4,1,1,1,29.92,29.89,0,0,0,0.00
2013-9-26,74.5,64.6,57.4,55.5,18.1,1.3,53,15,1,30.05,29.89,0,0,0,0.00
2013-9-27,72.7,60.7,52.7,51.9,13.0,-2.5,49,12,1,30.19,30.05,0,0,0,0.00
2013-9-28,68.8,58.1,50.6,47.4,11.1,-17.7,47,12,1,30.25,30.16,0,0,0,0.00
2013-9-29,70.4,58.3,49.7,51.4,11.1,-10.9,51,12,1,30.17,30.03,0,0,0,0.00
2013-9-30,74.7,59.6,50.0,52.7,9.4,-4.5,48,9,1,30.09,29.99,0,0,0,0.00
2013-10-1,80.3,63.2,52.6,60.3,14.1,-9.7,52,11,1,30.11,30.01,0,0,0,0.00
2013-10-2,81.7,67.0,57.1,61.7,23.6,-15.0,52,19,1,30.13,30.04,0,0,0,0.00
2013-10-6,71.3,70.7,70.2,12.0,11.5,11.1,1,1,1,29.96,29.94,0,0,0,0.00
2013-10-7,73.4,70.7,61.7,13.7,11.5,4.7,1,1,1,30.02,29.86,0,0,0,1.03
2013-10-8,63.0,58.9,55.4,41.8,25.6,1.4,47,30,1,30.22,30.02,0,0,0,0.00
2013-10-9,65.5,56.6,52.9,36.3,4.4,-2.1,36,7,1,30.19,30.11,0,0,0,0.03
2013-10-10,62.1,57.8,53.6,5.0,1.6,-1.6,1,1,1,30.10,29.96,0,0,0,0.39
2013-10-11,67.7,65.3,62.3,9.1,7.4,5.0,1,1,1,29.98,29.92,0,0,0,0.00
2013-10-12,68.6,64.8,60.5,9.9,7.0,3.7,1,1,1,30.09,29.96,0,0,0,0.04
2013-10-13,67.9,64.5,62.5,9.3,6.8,5.2,1,1,1,30.22,30.08,0,0,0,0.05
2013-10-14,65.2,62.3,58.0,7.1,5.1,1.6,1,1,1,30.25,30.18,0,0,0,0.03
2013-10-15,70.9,61.4,54.0,45.9,9.9,-16.0,44,8,1,30.21,30.06,0,0,0,0.00
2013-10-19,64.8,60.4,54.4,6.9,3.6,-1.2,1,1,1,29.94,29.81,0,0,0,0.01
2013-10-20,62.3,52.2,42.1,44.4,12.6,-10.6,54,21,1,30.11,29.91,0,0,0,0.00
2013-10-21,65.9,51.1,36.2,47.8,8.9,-15.2,53,17,1,30.14,29.99,0,0,0,0.00
2013-10-22,66.6,56.7,49.3,40.7,6.0,-17.3,39,7,1,29.99,29.79,0,0,0,0.00
2013-10-23,63.9,56.4,44.5,45.2,18.4,-2.9,58,24,1,29.99,29.68,0,0,0,0.01
2013-10-24,56.5,45.0,33.1,37.5,18.7,-17.6,55,37,1,30.15,29.99,0,0,0,0.00
2013-10-25,53.5,44.5,34.9,32.7,22.0,-16.2,57,43,1,30.33,30.15,0,0,0,0.00
2013-10-26,56.9,42.3,26.8,35.9,13.7,-22.5,56,34,1,30.32,30.04,0,0,0,0.00
2013-10-27,65.3,51.5,38.7,43.4,23.4,-13.2,56,36,1,30.10,30.01,0,0,0,0.00
2013-10-30,56.3,56.0,55.4,0.5,0.2,-0.4,1,1,1,30.18,30.17,0,0,0,0.00
2013-10-31,72.2,61.6,53.1,47.8,11.9,-2.1,42,10,1,30.17,29.89,0,0,0,0.00
2013-11-1,68.2,65.9,62.3,9.6,7.8,5.1,1,1,1,29.89,29.64,0,0,0,0.28
2013-11-2,68.0,59.3,49.5,47.1,13.6,-4.8,51,15,1,29.93,29.69,0,0,0,0.12
2013-11-3,60.8,49.6,40.0,40.1,22.3,-12.2,55,36,1,30.33,29.93,0,0,0,0.00
2013-11-4,54.0,43.1,36.0,35.4,20.7,-8.3,57,42,16,30.51,30.32,0,0,0,0.00
2013-11-5,56.2,46.0,34.0,34.1,12.1,-16.9,56,28,1,30.50,30.39,0,0,0,0.00
2013-11-6,68.4,53.7,41.4,45.5,7.5,-11.1,44,12,1,30.39,30.09,0,0,0,0.00
2013-11-7,65.7,57.7,45.5,42.0,15.0,-2.1,57,20,1,30.09,29.91,0,0,0,0.00
2013-11-8,54.4,44.0,33.1,30.7,26.0,13.2,60,50,35,30.28,30.08,0,0,0,0.00
2013-11-9,54.0,38.9,28.8,34.1,17.4,-7.1,57,43,21,30.30,30.12,0,0,0,0.00
2013-11-10,68.2,52.6,36.9,41.5,30.0,2.5,55,43,23,30.20,30.03,0,0,0,0.00
2013-11-11,57.1,45.8,32.8,34.2,28.5,18.3,60,51,40,30.30,30.09,0,0,0,0.00
2013-11-12,56.9,41.5,33.3,38.5,16.3,-16.8,56,39,7,30.38,30.00,0,0,0,0.03
2013-11-13,42.3,32.6,26.1,21.0,17.3,12.2,60,53,41,30.47,30.38,0,0,0,0.00
2013-11-14,55.8,38.0,24.3,28.2,18.6,4.2,59,46,32,30.40,30.27,0,0,0,0.00
2013-11-15,59.8,45.5,31.5,41.6,27.9,-4.8,59,51,10,30.29,30.16,0,0,0,0.01
2013-11-16,58.7,52.8,47.0,2.3,-2.3,-6.7,1,1,1,30.22,30.17,0,0,0,0.04
2013-11-17,65.5,60.2,55.1,7.6,3.5,-0.4,1,1,1,30.18,29.87,0,0,0,0.04
2013-11-18,71.5,64.3,52.6,51.3,25.7,5.4,50,25,1,29.94,29.78,0,0,0,0.10
2013-11-19,53.3,47.2,40.3,31.1,29.0,26.6,58,49,41,30.25,29.95,0,0,0,0.00
2013-11-20,51.5,43.4,36.7,33.5,28.6,24.2,60,56,49,30.39,30.26,0,0,0,0.00
2013-11-21,58.1,48.0,37.8,39.2,12.6,-13.3,49,26,3,30.45,30.33,0,0,0,0.00
2013-11-22,66.6,55.1,45.5,23.0,-4.9,-37.2,19,3,1,30.33,29.60,0,0,0,0.00
2013-11-23,60.1,53.9,41.2,40.0,20.7,-28.7,53,31,1,30.13,29.71,0,0,0,0.00
2013-11-24,41.2,32.0,23.8,23.2,10.6,4.6,59,41,28,30.46,30.13,0,0,0,0.00
2013-11-25,41.9,30.7,19.4,19.5,14.2,8.7,64,51,32,30.50,30.30,0,0,0,0.00
2013-11-26,63.0,41.0,35.1,23.6,4.7,-16.2,60,24,1,30.30,29.55,0,0,0,0.87
2013-11-27,46.8,38.5,28.8,20.2,-2.4,-16.8,58,17,1,30.10,29.45,0,0,0,0.64
2013-11-28,40.7,30.5,21.2,23.5,14.8,-1.7,59,52,37,30.40,30.10,0,0,0,0.00
2013-11-29,47.2,37.3,24.8,28.6,18.8,-10.6,58,48,20,30.55,30.37,0,0,0,0.00
2013-11-30,45.5,34.2,26.1,30.2,13.2,-22.5,59,44,1,30.56,30.29,0,0,0,0.00
2013-12-1,54.7,36.7,23.6,35.9,4.0,-25.1,56,27,1,30.29,29.96,0,0,0,0.00
2013-12-2,34.7,32.1,30.4,1.3,-14.1,-19.6,24,8,1,29.96,29.84,0,0,0,0.00
2013-12-9,44.1,43.9,43.9,-9.2,-18.9,-38.3,1,1,1,30.02,29.99,0,0,0,0.00
2013-12-10,47.5,41.4,27.7,31.0,-3.9,-37.9,56,15,1,30.24,29.67,0,0,0,0.42
2013-12-11,46.3,33.7,21.4,28.0,4.1,-28.6,57,31,1,30.37,30.20,0,0,0,0.00
2013-12-12,41.4,33.9,26.3,21.9,16.2,-19.7,61,49,11,30.34,30.19,0,0,0,0.00
2013-12-13,48.2,34.8,22.7,27.3,18.4,6.8,60,51,38,30.30,30.19,0,0,0,0.00
2013-12-15,43.6,43.4,43.4,0.0,-5.7,-9.8,1,1,1,29.86,29.80,0,0,0,2.59
2013-12-26,34.7,29.9,27.7,24.9,17.1,-99.9,80,68,61,29.95,29.93,2,-49,0,0.00
2013-12-27,52.9,34.2,22.5,27.4,22.0,19.7,96,66,29,30.01,29.90,3,1,0,0.04
2013-12-28,60.3,39.3,22.8,39.0,23.8,-99.9,95,63,30,29.94,29.75,4,-23,0,0.02
2013-12-30,52.3,45.2,41.4,41.5,34.7,-99.9,85,71,63,29.98,29.91,3,-21,0,0.00
2013-12-31,50.0,37.9,28.4,37.0,29.7,23.2,99,76,36,30.10,29.94,5,1,0,0.00
2014-1-1,49.5,35.5,26.8,29.3,26.5,23.8,97,73,38,30.11,29.84,4,1,0,0.00
2014-1-2,47.5,40.2,33.1,43.8,36.6,28.8,99,88,67,29.84,29.39,6,1,0,0.35